Time;durP1;ratioP1;P1;durP2;ratioP2;P2;SDS_P1;SDS_P2;PMS_P1;PMS_P2;Temp;Humidity;BMP_temperature;BMP_pressure;BME280_temperature;BME280_humidity;BME280_pressure;Samples;Min_cycle;Max_cycle;Signal;HPM_P1;HPM_P2
2022/12/29 00:01:52;;;;;;;3.10;1.20;;;10.90;88.20;;;;;;5048159;28;20135;-76
2022/12/29 00:04:18;;;;;;;3.47;1.20;;;10.90;88.10;;;;;;5048495;28;20018;-76
2022/12/29 00:06:44;;;;;;;2.80;1.13;;;10.80;88.00;;;;;;5048444;28;20026;-76
2022/12/29 00:09:13;;;;;;;3.05;1.20;;;10.90;88.10;;;;;;5033067;28;20095;-78
2022/12/29 00:11:39;;;;;;;2.63;1.20;;;10.90;88.10;;;;;;5032823;28;20025;-76
2022/12/29 00:16:49;;;;;;;1.95;1.10;;;10.90;88.00;;;;;;5033291;28;20044;-76
2022/12/29 00:35:54;;;;;;;1.85;0.90;;;10.80;88.10;;;;;;5032945;28;20091;-78
2022/12/29 00:44:07;;;;;;;1.60;0.93;;;10.90;88.20;;;;;;5033145;28;20044;-76
2022/12/29 00:46:34;;;;;;;1.75;0.93;;;10.90;88.20;;;;;;5047857;28;20022;-77
2022/12/29 00:49:33;;;;;;;2.72;1.10;;;10.80;88.20;;;;;;5031072;28;20389;-77
2022/12/29 00:51:54;;;;;;;2.10;1.08;;;10.90;88.30;;;;;;5030967;28;20500;-77
2022/12/29 00:54:19;;;;;;;2.42;1.00;;;10.90;88.20;;;;;;5032312;28;20041;-75
2022/12/29 00:56:50;;;;;;;1.88;0.90;;;10.90;88.30;;;;;;5086188;22;20051;-83
2022/12/29 00:59:15;;;;;;;1.90;0.93;;;10.90;88.20;;;;;;5071360;28;20029;-83
2022/12/29 01:01:41;;;;;;;1.30;0.95;;;10.90;88.30;;;;;;5061654;28;20039;-83
2022/12/29 01:04:08;;;;;;;2.08;1.10;;;10.90;88.40;;;;;;5051478;28;20025;-83
2022/12/29 01:06:35;;;;;;;2.33;1.00;;;10.90;88.40;;;;;;5041041;28;20022;-83
2022/12/29 01:11:45;;;;;;;2.40;1.05;;;10.90;88.30;;;;;;5033579;28;20404;-83
2022/12/29 01:14:11;;;;;;;0.90;0.70;;;10.90;88.30;;;;;;5031526;28;20025;-83
2022/12/29 01:16:36;;;;;;;1.23;0.82;;;10.90;88.30;;;;;;5031379;28;20049;-83
2022/12/29 01:19:03;;;;;;;2.53;1.02;;;10.90;88.30;;;;;;5031563;28;20080;-83
2022/12/29 01:21:28;;;;;;;1.77;0.88;;;10.90;88.30;;;;;;5032151;28;20442;-84
2022/12/29 01:23:54;;;;;;;2.65;1.00;;;10.90;88.30;;;;;;5031267;28;20021;-83
2022/12/29 01:26:19;;;;;;;1.35;0.73;;;10.80;88.40;;;;;;5035127;28;20108;-81
2022/12/29 01:28:45;;;;;;;1.38;0.80;;;10.90;88.40;;;;;;5035240;28;20475;-83
2022/12/29 01:31:13;;;;;;;1.48;0.80;;;10.90;88.30;;;;;;5054706;28;20078;-83
2022/12/29 01:33:39;;;;;;;5.45;1.30;;;10.90;88.40;;;;;;5054862;28;20017;-83
2022/12/29 01:36:07;;;;;;;1.52;0.75;;;10.80;88.30;;;;;;5052100;28;20020;-83
2022/12/29 01:38:34;;;;;;;1.63;0.80;;;10.90;88.50;;;;;;5049190;28;20044;-83
2022/12/29 01:41:00;;;;;;;1.90;0.75;;;10.90;88.50;;;;;;5055154;28;20033;-84
2022/12/29 01:43:45;;;;;;;3.03;0.77;;;10.90;88.40;;;;;;5055178;28;20426;-82
2022/12/29 01:46:26;;;;;;;0.70;0.60;;;10.80;88.40;;;;;;5055273;28;20021;-83
2022/12/29 01:48:57;;;;;;;2.28;0.95;;;10.90;88.50;;;;;;5055531;28;20108;-83
2022/12/29 01:51:25;;;;;;;1.70;0.80;;;10.80;88.50;;;;;;5054885;28;20427;-83
2022/12/29 01:53:53;;;;;;;1.05;0.70;;;10.90;88.50;;;;;;5054860;28;20071;-82
2022/12/29 01:56:20;;;;;;;1.48;0.80;;;10.90;88.50;;;;;;5054321;28;20065;-83
2022/12/29 01:58:50;;;;;;;1.70;0.80;;;10.90;88.60;;;;;;5054593;28;20028;-83
2022/12/29 02:01:19;;;;;;;0.60;0.60;;;10.90;88.50;;;;;;5054295;28;20094;-83
2022/12/29 02:03:44;;;;;;;1.15;0.65;;;10.90;88.50;;;;;;5054277;28;20021;-84
2022/12/29 02:06:20;;;;;;;1.50;0.70;;;10.90;88.50;;;;;;5054545;28;20036;-83
2022/12/29 02:08:49;;;;;;;1.08;0.70;;;10.90;88.50;;;;;;5054486;28;20036;-83
2022/12/29 02:11:16;;;;;;;0.85;0.60;;;10.90;88.50;;;;;;5054147;28;20024;-83
2022/12/29 02:13:41;;;;;;;0.82;0.60;;;10.90;88.60;;;;;;5054754;28;20079;-83
2022/12/29 02:16:27;;;;;;;0.75;0.57;;;10.90;88.50;;;;;;5054602;28;20025;-83
2022/12/29 02:19:27;;;;;;;1.30;0.75;;;10.90;88.60;;;;;;5024048;28;20075;-83
2022/12/29 02:22:15;;;;;;;0.98;0.65;;;10.90;88.50;;;;;;5055404;28;20032;-83
2022/12/29 02:24:55;;;;;;;1.27;0.70;;;10.90;88.50;;;;;;5055933;28;20050;-83
2022/12/29 02:28:01;;;;;;;1.35;0.80;;;10.90;88.60;;;;;;5054391;28;20545;-83
2022/12/29 02:30:49;;;;;;;1.00;0.60;;;10.90;88.50;;;;;;5056192;28;20510;-83
2022/12/29 02:33:38;;;;;;;;;;;10.90;88.60;;;;;;5056033;28;20112;-83
2022/12/29 02:36:22;;;;;;;1.42;0.70;;;10.90;88.60;;;;;;5053486;28;19936;-83
2022/12/29 02:39:25;;;;;;;1.15;0.60;;;10.90;88.60;;;;;;5054322;28;20025;-83
2022/12/29 02:42:09;;;;;;;0.93;0.60;;;10.90;88.60;;;;;;5056346;28;20035;-83
2022/12/29 02:45:10;;;;;;;1.63;0.75;;;10.90;88.70;;;;;;5054228;28;20058;-83
2022/12/29 02:48:16;;;;;;;0.80;0.60;;;10.90;88.60;;;;;;5054374;28;20510;-83
2022/12/29 02:50:54;;;;;;;1.23;0.65;;;10.90;88.70;;;;;;5055359;28;20051;-83
2022/12/29 02:54:40;;;;;;;1.20;0.70;;;10.90;88.60;;;;;;5053972;28;20033;-83
2022/12/29 02:56:06;;;;;;;1.58;0.70;;;10.90;88.70;;;;;;5054498;28;20054;-83
2022/12/29 02:58:32;;;;;;;5.40;0.73;;;10.90;88.70;;;;;;5053795;28;20538;-83
2022/12/29 03:01:10;;;;;;;1.92;0.70;;;10.90;88.60;;;;;;5053473;28;20033;-83
2022/12/29 03:04:13;;;;;;;1.30;0.70;;;10.90;88.70;;;;;;5047818;28;20387;-81
2022/12/29 03:06:51;;;;;;;0.88;0.57;;;10.90;88.70;;;;;;5034406;28;20027;-83
2022/12/29 03:09:17;;;;;;;1.20;0.68;;;10.90;88.80;;;;;;5033640;28;20443;-83
2022/12/29 03:12:09;;;;;;;1.42;0.60;;;10.90;88.70;;;;;;5033263;28;20033;-83
2022/12/29 03:17:55;;;;;;;0.65;0.43;;;10.90;88.80;;;;;;5035395;28;20027;-83
2022/12/29 03:20:26;;;;;;;1.00;0.50;;;10.90;88.70;;;;;;5033141;28;20120;-83
2022/12/29 03:23:00;;;;;;;0.82;0.50;;;10.90;88.80;;;;;;5034275;28;20033;-83
2022/12/29 03:25:32;;;;;;;1.73;0.60;;;10.90;88.80;;;;;;5033196;28;20033;-83
2022/12/29 03:28:06;;;;;;;;;;;10.90;88.90;;;;;;5033408;28;20391;-83
2022/12/29 03:30:33;;;;;;;0.75;0.55;;;10.90;88.90;;;;;;5034153;28;19912;-81
2022/12/29 03:33:04;;;;;;;1.00;0.60;;;10.90;88.80;;;;;;5032998;28;20052;-83
2022/12/29 03:35:32;;;;;;;0.45;0.30;;;10.90;88.80;;;;;;5032800;28;20033;-83
2022/12/29 03:38:06;;;;;;;1.02;0.55;;;10.90;88.80;;;;;;5032830;28;20028;-83
2022/12/29 03:40:33;;;;;;;0.63;0.55;;;10.90;88.80;;;;;;5032641;28;20368;-83
2022/12/29 03:42:59;;;;;;;0.77;0.50;;;10.90;89.40;;;;;;5032810;28;20025;-83
2022/12/29 03:45:25;;;;;;;0.57;0.40;;;10.90;88.80;;;;;;5032760;28;20025;-83
2022/12/29 03:47:52;;;;;;;1.00;0.47;;;10.90;88.80;;;;;;5031566;28;20022;-82
2022/12/29 03:50:18;;;;;;;0.30;0.30;;;10.90;88.80;;;;;;5033862;28;20021;-83
2022/12/29 03:52:43;;;;;;;1.10;0.60;;;10.90;88.80;;;;;;5034067;28;20030;-82
2022/12/29 03:55:09;;;;;;;1.00;0.68;;;10.90;88.80;;;;;;5032428;28;20029;-83
2022/12/29 03:57:35;;;;;;;0.57;0.40;;;10.90;88.90;;;;;;5032328;28;20037;-83
2022/12/29 04:00:01;;;;;;;0.52;0.52;;;10.90;88.90;;;;;;5032328;28;20029;-82
2022/12/29 04:02:26;;;;;;;0.70;0.50;;;10.90;88.90;;;;;;5031965;28;20035;-83
2022/12/29 04:04:52;;;;;;;0.43;0.32;;;10.90;88.80;;;;;;5032276;28;20056;-83
2022/12/29 04:07:17;;;;;;;0.68;0.60;;;10.90;88.90;;;;;;5032148;28;20025;-82
2022/12/29 04:09:43;;;;;;;1.20;0.50;;;10.90;88.90;;;;;;5032245;28;20021;-83
2022/12/29 04:12:08;;;;;;;0.60;0.50;;;10.90;89.00;;;;;;5031840;28;20480;-82
2022/12/29 04:14:34;;;;;;;1.00;0.45;;;10.90;88.90;;;;;;5032159;28;20041;-83
2022/12/29 04:16:59;;;;;;;0.70;0.45;;;10.90;88.90;;;;;;5032231;28;20120;-83
2022/12/29 04:19:25;;;;;;;0.73;0.40;;;10.90;89.50;;;;;;5032030;28;20033;-82
2022/12/29 04:21:50;;;;;;;0.47;0.30;;;10.90;89.00;;;;;;5031716;28;20025;-83
2022/12/29 04:24:16;;;;;;;0.40;0.30;;;10.90;89.00;;;;;;5032136;28;20362;-83
2022/12/29 04:26:41;;;;;;;0.43;0.40;;;10.90;89.00;;;;;;5031821;28;20068;-84
2022/12/29 04:29:07;;;;;;;0.40;0.38;;;10.90;89.00;;;;;;5031825;28;20045;-82
2022/12/29 04:31:32;;;;;;;0.32;0.30;;;10.90;89.00;;;;;;5031658;28;20026;-83
2022/12/29 04:33:59;;;;;;;0.98;0.40;;;10.90;89.00;;;;;;5031665;28;20104;-82
2022/12/29 04:36:25;;;;;;;0.50;0.32;;;10.90;89.00;;;;;;5031583;28;20025;-82
2022/12/29 04:38:51;;;;;;;0.57;0.50;;;10.90;89.00;;;;;;5031610;28;20025;-83
2022/12/29 04:41:16;;;;;;;0.30;0.30;;;10.90;89.00;;;;;;5031443;28;20026;-83
2022/12/29 04:43:42;;;;;;;0.55;0.40;;;10.90;89.00;;;;;;5031711;28;20032;-83
2022/12/29 04:46:07;;;;;;;0.40;0.30;;;10.90;89.00;;;;;;5031378;28;20030;-83
2022/12/29 04:48:33;;;;;;;0.93;0.52;;;10.90;88.90;;;;;;5031652;28;20479;-83
2022/12/29 04:50:58;;;;;;;0.55;0.40;;;10.90;89.00;;;;;;5031332;28;20076;-83
2022/12/29 04:53:24;;;;;;;0.77;0.40;;;10.90;89.00;;;;;;5031518;28;20116;-83
2022/12/29 04:55:51;;;;;;;0.82;0.45;;;10.90;89.00;;;;;;5031487;28;20033;-83
2022/12/29 04:58:17;;;;;;;1.08;0.50;;;10.90;89.00;;;;;;5031779;28;20495;-83
2022/12/29 05:00:42;;;;;;;0.93;0.40;;;10.90;89.00;;;;;;5032412;28;20033;-83
2022/12/29 05:03:08;;;;;;;0.93;0.40;;;10.90;89.10;;;;;;5032260;28;20384;-80
2022/12/29 05:05:33;;;;;;;0.60;0.40;;;10.90;89.10;;;;;;5051024;28;20021;-82
2022/12/29 05:07:59;;;;;;;0.40;0.30;;;10.90;89.10;;;;;;5051669;28;20021;-83
2022/12/29 05:10:25;;;;;;;0.30;0.30;;;10.90;89.10;;;;;;5051250;28;20025;-83
2022/12/29 05:12:50;;;;;;;0.98;0.20;;;10.90;89.10;;;;;;5051262;28;20033;-83
2022/12/29 05:15:16;;;;;;;0.52;0.30;;;10.90;89.10;;;;;;5051347;28;20025;-83
2022/12/29 05:17:42;;;;;;;0.60;0.50;;;10.90;89.10;;;;;;5051339;28;20029;-83
2022/12/29 05:20:08;;;;;;;0.30;0.30;;;10.90;89.20;;;;;;5047658;28;20147;-81
2022/12/29 05:22:33;;;;;;;0.68;0.40;;;10.90;89.10;;;;;;5028380;28;20112;-81
2022/12/29 05:24:59;;;;;;;0.30;0.30;;;10.90;89.10;;;;;;5026622;28;20156;-80
2022/12/29 05:27:24;;;;;;;0.40;0.40;;;10.90;89.10;;;;;;5028334;28;20384;-82
2022/12/29 05:29:50;;;;;;;0.80;0.40;;;10.80;89.10;;;;;;5026554;28;20248;-81
2022/12/29 05:32:15;;;;;;;5.22;0.50;;;10.90;89.10;;;;;;5046997;28;20036;-80
2022/12/29 05:34:40;;;;;;;0.63;0.40;;;10.90;89.30;;;;;;5047132;28;20051;-83
2022/12/29 05:37:06;;;;;;;0.40;0.40;;;10.90;89.40;;;;;;5047978;28;20438;-83
2022/12/29 05:39:32;;;;;;;0.40;0.30;;;10.90;89.20;;;;;;5042362;28;20116;-82
2022/12/29 05:41:57;;;;;;;0.40;0.30;;;10.90;89.20;;;;;;5044819;28;20033;-82
2022/12/29 05:44:23;;;;;;;0.68;0.40;;;10.90;89.10;;;;;;5045350;28;20415;-84
2022/12/29 05:46:48;;;;;;;0.50;0.35;;;10.90;89.10;;;;;;5044370;28;20056;-83
2022/12/29 05:49:15;;;;;;;1.30;0.73;;;10.90;89.10;;;;;;5028869;28;20028;-83
2022/12/29 05:51:40;;;;;;;0.85;0.50;;;10.90;89.20;;;;;;5044145;28;20443;-81
2022/12/29 05:54:06;;;;;;;4.55;0.40;;;10.90;89.10;;;;;;5028751;28;20029;-83
2022/12/29 05:56:31;;;;;;;1.08;0.30;;;10.90;89.10;;;;;;5043316;28;20095;-81
2022/12/29 05:58:57;;;;;;;0.30;0.30;;;10.90;89.20;;;;;;5043761;28;20703;-83
2022/12/29 06:01:22;;;;;;;0.32;0.32;;;10.90;89.10;;;;;;5043386;28;20034;-81
2022/12/29 06:03:48;;;;;;;0.40;0.30;;;10.80;89.10;;;;;;5035522;28;20500;-83
2022/12/29 06:06:17;;;;;;;0.65;0.40;;;10.90;89.10;;;;;;5028720;28;20351;-81
2022/12/29 06:08:42;;;;;;;0.95;0.40;;;10.90;89.20;;;;;;5028738;28;20017;-83
2022/12/29 06:11:08;;;;;;;0.93;0.50;;;10.90;89.20;;;;;;5028949;28;20036;-82
2022/12/29 06:13:33;;;;;;;1.15;0.45;;;10.90;89.10;;;;;;5032633;28;20056;-83
2022/12/29 06:15:59;;;;;;;0.60;0.40;;;10.90;89.20;;;;;;5032607;28;20340;-83
2022/12/29 06:18:24;;;;;;;0.80;0.40;;;10.90;89.40;;;;;;5033057;28;20029;-81
2022/12/29 06:20:50;;;;;;;0.35;0.30;;;10.90;89.30;;;;;;5031246;28;20037;-81
2022/12/29 06:23:16;;;;;;;0.73;0.20;;;10.90;89.20;;;;;;5031309;28;20128;-80
2022/12/29 06:25:42;;;;;;;0.30;0.30;;;10.90;89.10;;;;;;5031243;28;20099;-82
2022/12/29 06:28:07;;;;;;;0.35;0.30;;;10.90;89.10;;;;;;5031525;28;20021;-82
2022/12/29 06:30:33;;;;;;;0.45;0.20;;;10.90;89.20;;;;;;5031400;28;20026;-82
2022/12/29 06:32:59;;;;;;;0.88;0.40;;;10.90;89.20;;;;;;5031708;28;20025;-81
2022/12/29 06:35:25;;;;;;;0.45;0.40;;;10.90;89.20;;;;;;5032884;28;20033;-83
2022/12/29 06:37:50;;;;;;;0.55;0.30;;;10.90;89.20;;;;;;5031869;28;20083;-82
2022/12/29 06:40:16;;;;;;;1.17;0.32;;;10.90;89.10;;;;;;5032841;28;20398;-83
2022/12/29 06:42:41;;;;;;;0.80;0.30;;;10.90;89.10;;;;;;5035851;28;20517;-83
2022/12/29 06:45:07;;;;;;;0.32;0.20;;;10.90;89.10;;;;;;5047798;28;20058;-83
2022/12/29 06:47:34;;;;;;;0.60;0.30;;;10.90;89.20;;;;;;5049833;28;20052;-83
2022/12/29 06:50:00;;;;;;;0.45;0.38;;;10.90;89.10;;;;;;5049980;28;20071;-86
2022/12/29 06:52:26;;;;;;;0.65;0.30;;;10.90;89.10;;;;;;5050662;28;20021;-83
2022/12/29 06:54:51;;;;;;;1.17;0.30;;;10.90;89.10;;;;;;5049692;28;20116;-83
2022/12/29 06:57:17;;;;;;;0.70;0.30;;;10.90;89.10;;;;;;5116439;22;20080;-77
2022/12/29 06:59:42;;;;;;;0.40;0.30;;;10.90;89.10;;;;;;5071323;28;20052;-77
2022/12/29 07:02:10;;;;;;;0.65;0.30;;;10.90;89.10;;;;;;5072046;28;20046;-77
2022/12/29 07:04:36;;;;;;;0.60;0.32;;;10.90;89.20;;;;;;5073731;28;20100;-77
2022/12/29 07:07:01;;;;;;;0.22;0.20;;;10.90;89.10;;;;;;5072278;28;20063;-77
2022/12/29 07:09:27;;;;;;;0.60;0.40;;;10.90;89.10;;;;;;5073808;28;20394;-77
2022/12/29 07:11:52;;;;;;;4.85;1.38;;;10.90;89.10;;;;;;5072275;28;20032;-77
2022/12/29 07:14:18;;;;;;;0.30;0.20;;;10.90;89.10;;;;;;5072704;28;20021;-77
2022/12/29 07:16:43;;;;;;;0.55;0.30;;;10.90;89.10;;;;;;5072154;28;20120;-77
2022/12/29 07:19:09;;;;;;;1.02;0.32;;;10.90;89.10;;;;;;5072153;28;20150;-77
2022/12/29 07:21:34;;;;;;;0.50;0.30;;;10.90;89.00;;;;;;5071839;28;20402;-77
2022/12/29 07:24:00;;;;;;;0.70;0.30;;;10.90;89.10;;;;;;5071800;28;20020;-77
2022/12/29 07:26:25;;;;;;;0.50;0.30;;;10.90;89.10;;;;;;5073238;28;20522;-77
2022/12/29 07:28:51;;;;;;;2.15;0.50;;;10.90;89.20;;;;;;5073256;28;20155;-77
2022/12/29 07:31:22;;;;;;;0.90;0.40;;;10.90;89.10;;;;;;5072848;28;20025;-77
2022/12/29 07:33:48;;;;;;;0.22;0.22;;;10.90;89.10;;;;;;5073396;28;20070;-77
2022/12/29 07:36:14;;;;;;;0.65;0.30;;;10.90;89.00;;;;;;5071704;28;20493;-77
2022/12/29 07:38:41;;;;;;;0.30;0.30;;;10.90;89.00;;;;;;5073080;28;20031;-77
2022/12/29 07:41:06;;;;;;;0.32;0.28;;;10.90;89.00;;;;;;5072746;28;20028;-77
2022/12/29 07:43:32;;;;;;;0.20;0.20;;;10.90;88.90;;;;;;5072907;28;20046;-77
2022/12/29 07:45:57;;;;;;;0.85;0.30;;;10.90;89.00;;;;;;5072745;28;20070;-77
2022/12/29 07:48:23;;;;;;;0.63;0.30;;;10.90;89.10;;;;;;5071455;28;20028;-76
2022/12/29 07:50:48;;;;;;;0.50;0.30;;;10.90;89.00;;;;;;5072250;28;20039;-77
2022/12/29 07:53:14;;;;;;;0.60;0.38;;;10.90;89.10;;;;;;5072695;28;20036;-77
2022/12/29 07:55:40;;;;;;;5.97;1.98;;;10.90;89.10;;;;;;5072804;28;20024;-77
2022/12/29 07:58:05;;;;;;;5.80;1.65;;;10.90;89.00;;;;;;5072452;28;20111;-77
2022/12/29 08:00:31;;;;;;;3.63;1.30;;;10.90;89.00;;;;;;5071146;28;20028;-76
2022/12/29 08:02:56;;;;;;;5.38;1.20;;;10.90;89.00;;;;;;5072365;28;20387;-76
2022/12/29 08:05:22;;;;;;;2.20;0.70;;;10.90;89.00;;;;;;5072716;28;20433;-77
2022/12/29 08:07:47;;;;;;;1.83;0.63;;;10.90;89.00;;;;;;5072316;28;20036;-77
2022/12/29 08:10:14;;;;;;;10.43;3.65;;;10.90;89.10;;;;;;5072372;28;20534;-76
2022/12/29 08:12:40;;;;;;;7.00;2.45;;;10.90;89.00;;;;;;5072191;28;20390;-76
2022/12/29 08:15:07;;;;;;;7.43;3.05;;;10.90;89.00;;;;;;5070926;28;20024;-77
2022/12/29 08:17:33;;;;;;;7.68;2.58;;;10.90;89.00;;;;;;5072028;28;20040;-76
2022/12/29 08:19:58;;;;;;;5.32;1.63;;;10.90;89.50;;;;;;5072251;28;20391;-77
2022/12/29 08:22:24;;;;;;;6.20;1.70;;;10.90;89.00;;;;;;5071780;28;20032;-77
2022/12/29 08:24:50;;;;;;;4.88;1.30;;;10.90;88.90;;;;;;5072127;28;20024;-76
2022/12/29 08:27:16;;;;;;;3.55;1.30;;;10.90;89.00;;;;;;5071979;28;20025;-77
2022/12/29 08:29:41;;;;;;;3.53;1.20;;;10.90;89.00;;;;;;5072036;28;20028;-77
2022/12/29 08:32:07;;;;;;;4.05;1.25;;;10.90;89.00;;;;;;5071757;28;20024;-78
2022/12/29 08:34:33;;;;;;;2.88;1.00;;;10.90;89.00;;;;;;5071373;28;20036;-77
2022/12/29 08:36:58;;;;;;;3.83;1.05;;;10.90;88.90;;;;;;5071829;28;20454;-78
2022/12/29 08:39:24;;;;;;;4.00;1.25;;;10.90;89.00;;;;;;5071810;28;20036;-78
2022/12/29 08:41:49;;;;;;;2.97;1.20;;;10.90;89.00;;;;;;5071599;28;20031;-76
2022/12/29 08:44:15;;;;;;;4.07;1.10;;;10.90;88.90;;;;;;5070443;28;20074;-77
2022/12/29 08:46:40;;;;;;;3.35;0.98;;;10.90;88.90;;;;;;5071959;28;20428;-76
2022/12/29 08:49:06;;;;;;;3.45;1.10;;;10.90;88.80;;;;;;5070777;28;20063;-77
2022/12/29 08:51:31;;;;;;;3.05;0.90;;;10.90;88.80;;;;;;5071288;28;20052;-77
2022/12/29 08:53:57;;;;;;;3.28;1.00;;;10.90;88.90;;;;;;5071761;28;20040;-77
2022/12/29 08:56:23;;;;;;;3.72;1.20;;;10.90;88.80;;;;;;5070218;28;20032;-76
2022/12/29 08:58:49;;;;;;;3.00;1.10;;;10.90;88.80;;;;;;5070509;28;20111;-77
2022/12/29 09:01:15;;;;;;;2.42;0.90;;;10.90;88.80;;;;;;5070272;28;20325;-76
2022/12/29 09:03:40;;;;;;;2.63;0.80;;;11.00;88.90;;;;;;5070402;28;20028;-76
2022/12/29 09:06:06;;;;;;;2.97;1.00;;;11.00;88.80;;;;;;5071447;28;20021;-76
2022/12/29 09:08:32;;;;;;;3.45;1.13;;;11.00;88.70;;;;;;5070490;28;20074;-78
2022/12/29 09:11:16;;;;;;;2.75;0.93;;;11.00;88.70;;;;;;5070275;28;20024;-76
2022/12/29 09:13:42;;;;;;;3.50;1.00;;;11.00;88.50;;;;;;5070355;28;20029;-77
2022/12/29 09:16:08;;;;;;;2.58;0.80;;;11.10;88.30;;;;;;5070173;28;20119;-76
2022/12/29 09:18:33;;;;;;;3.15;0.93;;;11.10;88.10;;;;;;5071522;28;20027;-76
2022/12/29 09:21:01;;;;;;;2.88;1.00;;;11.10;87.90;;;;;;5071365;28;20379;-76
2022/12/29 09:23:27;;;;;;;2.95;1.10;;;11.20;87.80;;;;;;5070295;28;20119;-77
2022/12/29 09:25:53;;;;;;;3.22;1.25;;;11.20;87.80;;;;;;5070168;28;20449;-75
2022/12/29 09:28:19;;;;;;;2.83;1.00;;;11.20;87.80;;;;;;5071304;28;20679;-77
2022/12/29 09:30:44;;;;;;;2.17;0.90;;;11.20;87.90;;;;;;5071331;28;20116;-77
2022/12/29 09:33:10;;;;;;;3.65;1.20;;;11.10;87.80;;;;;;5070105;28;20119;-77
2022/12/29 09:35:36;;;;;;;3.17;1.10;;;11.20;87.80;;;;;;5071229;28;20084;-78
2022/12/29 09:38:01;;;;;;;2.40;0.80;;;11.10;87.80;;;;;;5069848;28;20028;-79
2022/12/29 09:40:30;;;;;;;3.83;1.00;;;11.10;87.90;;;;;;5071175;28;20391;-77
2022/12/29 09:43:10;;;;;;;3.35;1.10;;;11.10;87.90;;;;;;5071175;28;20082;-77
2022/12/29 09:45:46;;;;;;;3.72;1.20;;;11.10;87.90;;;;;;5070058;28;20093;-77
2022/12/29 09:48:17;;;;;;;2.97;0.90;;;11.10;87.90;;;;;;5074902;28;20077;-78
2022/12/29 09:50:47;;;;;;;2.67;1.00;;;11.20;87.80;;;;;;5073161;28;20487;-78
2022/12/29 09:53:20;;;;;;;3.00;0.90;;;11.20;87.60;;;;;;5074943;28;20024;-78
2022/12/29 09:55:52;;;;;;;2.35;0.90;;;11.30;87.30;;;;;;5075033;28;20028;-78
2022/12/29 09:58:39;;;;;;;2.13;0.90;;;11.40;87.10;;;;;;5074611;28;20509;-79
2022/12/29 10:01:19;;;;;;;2.53;0.98;;;11.40;87.00;;;;;;5074652;28;20035;-77
2022/12/29 10:03:51;;;;;;;3.35;1.05;;;11.40;87.10;;;;;;5074709;28;20029;-77
2022/12/29 10:06:22;;;;;;;2.88;0.98;;;11.40;87.10;;;;;;5073423;28;20479;-77
2022/12/29 10:08:58;;;;;;;2.35;1.10;;;11.40;86.90;;;;;;5074832;28;20021;-77
2022/12/29 10:11:42;;;;;;;2.72;1.00;;;11.40;86.80;;;;;;5073088;28;20028;-76
2022/12/29 10:14:28;;;;;;;5.00;1.95;;;11.40;86.90;;;;;;5073407;28;20024;-77
2022/12/29 10:17:08;;;;;;;2.95;1.02;;;11.40;86.90;;;;;;5074519;28;20013;-77
2022/12/29 10:19:43;;;;;;;6.32;2.10;;;11.50;86.70;;;;;;5074588;28;20020;-77
2022/12/29 10:22:28;;;;;;;6.75;2.10;;;11.50;86.60;;;;;;5073028;28;20035;-77
2022/12/29 10:24:56;;;;;;;53.10;25.23;;;11.60;86.20;;;;;;5074500;28;20021;-77
2022/12/29 10:27:23;;;;;;;51.60;23.38;;;11.60;86.20;;;;;;5073060;28;20198;-77
2022/12/29 10:29:55;;;;;;;37.58;17.92;;;11.60;86.30;;;;;;5074539;28;20017;-77
2022/12/29 10:32:32;;;;;;;33.15;13.93;;;11.60;86.30;;;;;;5072652;28;20166;-77
2022/12/29 10:35:08;;;;;;;28.77;12.73;;;11.50;86.30;;;;;;5074341;28;20040;-77
2022/12/29 10:37:57;;;;;;;23.73;11.05;;;11.50;86.40;;;;;;5072938;28;20058;-77
2022/12/29 10:40:35;;;;;;;23.70;9.90;;;11.50;86.50;;;;;;5074144;28;20028;-76
2022/12/29 10:43:24;;;;;;;16.67;7.55;;;11.50;86.70;;;;;;5073947;28;20112;-77
2022/12/29 10:45:51;;;;;;;18.02;8.00;;;11.40;86.70;;;;;;5072732;28;20017;-77
2022/12/29 10:48:30;;;;;;;16.55;7.22;;;11.40;86.80;;;;;;5072635;28;20543;-77
2022/12/29 10:50:58;;;;;;;17.27;7.78;;;11.40;86.90;;;;;;5073299;28;20115;-74
2022/12/29 10:53:30;;;;;;;16.25;7.20;;;11.30;86.90;;;;;;5072547;28;20033;-77
2022/12/29 10:55:56;;;;;;;17.27;7.28;;;11.40;87.00;;;;;;5072590;28;20536;-76
2022/12/29 10:58:24;;;;;;;15.45;6.57;;;11.30;87.00;;;;;;5071726;28;20439;-77
2022/12/29 11:00:52;;;;;;;15.10;6.97;;;11.30;87.10;;;;;;5073656;28;20370;-77
2022/12/29 11:03:49;;;;;;;15.75;6.88;;;11.30;87.20;;;;;;5072436;28;20029;-76
2022/12/29 11:06:22;;;;;;;17.15;7.55;;;11.30;87.20;;;;;;5073675;28;20016;-76
2022/12/29 11:09:01;;;;;;;16.45;6.93;;;11.30;87.30;;;;;;5072453;28;20021;-77
2022/12/29 11:11:34;;;;;;;19.02;8.55;;;11.30;87.30;;;;;;5073298;28;20028;-77
2022/12/29 11:14:12;;;;;;;20.05;9.82;;;11.30;87.40;;;;;;5072448;28;20401;-77
2022/12/29 11:16:37;;;;;;;18.75;8.48;;;11.30;87.50;;;;;;5072316;28;20021;-77
2022/12/29 11:19:03;;;;;;;25.13;9.15;;;11.30;87.50;;;;;;5073436;28;20070;-77
2022/12/29 11:21:39;;;;;;;17.92;7.90;;;11.30;87.50;;;;;;5071732;28;20390;-77
2022/12/29 11:24:19;;;;;;;16.50;7.50;;;11.20;87.50;;;;;;5073220;28;20028;-77
2022/12/29 11:26:44;;;;;;;15.05;7.35;;;11.30;87.60;;;;;;5071870;28;20159;-77
2022/12/29 11:29:16;;;;;;;13.27;6.25;;;11.20;87.60;;;;;;5072048;28;20052;-76
2022/12/29 11:31:57;;;;;;;15.00;6.85;;;11.20;87.60;;;;;;5073004;28;20028;-76
2022/12/29 11:34:32;;;;;;;16.38;8.00;;;11.20;87.60;;;;;;5071807;28;20028;-77
2022/12/29 11:37:05;;;;;;;17.40;8.77;;;11.20;87.70;;;;;;5071985;28;20024;-76
2022/12/29 11:39:57;;;;;;;16.40;7.60;;;11.20;87.70;;;;;;5073108;28;20027;-76
2022/12/29 11:42:32;;;;;;;14.05;6.40;;;11.20;87.80;;;;;;5072512;28;20024;-77
2022/12/29 11:45:06;;;;;;;14.95;6.75;;;11.20;87.70;;;;;;5071728;28;20020;-77
2022/12/29 11:47:33;;;;;;;14.35;6.40;;;11.20;87.70;;;;;;5072786;28;20471;-77
2022/12/29 11:50:01;;;;;;;12.95;6.28;;;11.20;87.80;;;;;;5072826;28;20025;-77
2022/12/29 11:52:32;;;;;;;13.10;6.20;;;11.20;87.80;;;;;;5071117;28;20471;-76
2022/12/29 11:55:00;;;;;;;14.07;6.37;;;11.20;87.90;;;;;;5072825;28;20051;-76
2022/12/29 11:57:27;;;;;;;13.90;6.40;;;11.20;87.90;;;;;;5072410;28;20324;-77
2022/12/29 11:59:55;;;;;;;13.80;6.07;;;11.20;87.90;;;;;;5072624;28;20024;-76
2022/12/29 12:02:29;;;;;;;13.98;6.88;;;11.20;87.90;;;;;;5072100;28;20071;-77
2022/12/29 12:05:05;;;;;;;12.48;6.05;;;11.20;87.90;;;;;;5072569;28;20048;-77
2022/12/29 12:07:42;;;;;;;13.02;6.18;;;11.20;88.00;;;;;;5071101;28;20031;-76
2022/12/29 12:10:38;;;;;;;13.93;6.43;;;11.20;88.00;;;;;;5071576;28;20359;-77
2022/12/29 12:13:22;;;;;;;15.30;7.65;;;11.10;88.00;;;;;;5068538;28;20494;-77
2022/12/29 12:16:07;;;;;;;15.02;7.68;;;11.10;88.00;;;;;;5071176;28;20037;-77
2022/12/29 12:18:53;;;;;;;12.52;5.68;;;11.20;88.10;;;;;;5072360;28;20509;-77
2022/12/29 12:21:27;;;;;;;13.10;5.90;;;11.10;88.00;;;;;;5070785;28;20028;-77
2022/12/29 12:24:08;;;;;;;11.90;5.68;;;11.10;88.10;;;;;;5072181;28;20028;-77
2022/12/29 12:26:49;;;;;;;12.13;6.05;;;11.10;88.10;;;;;;5070883;28;20054;-77
2022/12/29 12:29:22;;;;;;;12.07;6.03;;;11.20;88.20;;;;;;5072127;28;20025;-77
2022/12/29 12:32:10;;;;;;;11.68;5.85;;;11.20;88.20;;;;;;5071841;28;20024;-76
2022/12/29 12:34:44;;;;;;;10.70;5.30;;;11.20;88.20;;;;;;5072081;28;20060;-77
2022/12/29 12:37:38;;;;;;;10.20;5.68;;;11.20;88.10;;;;;;5071862;28;20020;-76
2022/12/29 12:40:24;;;;;;;10.43;5.38;;;11.10;88.10;;;;;;5071849;28;20482;-77
2022/12/29 12:43:06;;;;;;;10.98;5.65;;;11.10;88.10;;;;;;5071651;28;20021;-77
2022/12/29 12:45:54;;;;;;;10.70;4.88;;;11.10;88.10;;;;;;5070702;28;20025;-77
2022/12/29 12:48:49;;;;;;;11.20;5.20;;;11.10;88.20;;;;;;5060527;28;20089;-77
2022/12/29 12:51:18;;;;;;;11.70;5.20;;;11.10;88.10;;;;;;5070110;28;20020;-76
2022/12/29 12:53:46;;;;;;;11.15;5.03;;;11.10;88.10;;;;;;5070525;28;20050;-77
2022/12/29 12:56:56;;;;;;;9.25;4.35;;;11.10;88.20;;;;;;5071450;28;20024;-77
2022/12/29 12:59:36;;;;;;;9.52;4.28;;;11.10;88.20;;;;;;5071760;28;20090;-77
2022/12/29 13:02:26;;;;;;;10.60;4.60;;;11.10;88.20;;;;;;5070112;28;20330;-77
2022/12/29 13:05:16;;;;;;;10.38;4.95;;;11.10;88.20;;;;;;5071798;28;20676;-76
2022/12/29 13:08:07;;;;;;;11.95;5.07;;;11.10;88.20;;;;;;5071572;28;20492;-76
2022/12/29 13:10:59;;;;;;;11.05;4.95;;;11.10;88.20;;;;;;5070435;28;20025;-76
2022/12/29 13:13:48;;;;;;;9.60;4.38;;;11.10;88.20;;;;;;5070287;28;20112;-77
2022/12/29 13:16:45;;;;;;;9.27;4.25;;;11.10;88.20;;;;;;5071391;28;20025;-76
2022/12/29 13:19:14;;;;;;;8.75;4.07;;;11.10;88.20;;;;;;5071449;28;20517;-76
2022/12/29 13:21:51;;;;;;;8.93;4.05;;;11.10;88.20;;;;;;5074699;28;20032;-76
2022/12/29 13:24:35;;;;;;;8.50;3.92;;;11.10;88.20;;;;;;5074287;28;20509;-76
2022/12/29 13:27:16;;;;;;;8.57;4.00;;;11.10;88.20;;;;;;5075483;28;20021;-77
2022/12/29 13:30:00;;;;;;;9.77;4.20;;;11.10;88.20;;;;;;5075617;28;20074;-77
2022/12/29 13:32:34;;;;;;;9.25;3.85;;;11.10;88.20;;;;;;5073966;28;20115;-77
2022/12/29 13:35:35;;;;;;;8.70;3.60;;;11.10;88.30;;;;;;5075409;28;20021;-75
2022/12/29 13:38:18;;;;;;;9.05;3.60;;;11.10;88.20;;;;;;5074142;28;20032;-77